createdAt,value
2018-09-19T00:00:06.276Z,0.00
2018-09-19T00:01:06.241Z,0.00
2018-09-19T00:02:06.226Z,0.00
2018-09-19T00:03:06.216Z,0.00
2018-09-19T00:04:06.219Z,0.00
2018-09-19T00:05:06.197Z,0.00
2018-09-19T00:06:06.214Z,0.00
2018-09-19T00:07:06.178Z,0.00
2018-09-19T00:08:06.174Z,0.00
2018-09-19T00:09:06.166Z,0.00
2018-09-19T00:10:06.136Z,0.00
2018-09-19T00:11:06.141Z,0.00
2018-09-19T00:12:06.169Z,0.00
2018-09-19T00:13:06.104Z,0.00
2018-09-19T00:14:06.095Z,0.00
2018-09-19T00:15:06.084Z,0.00
2018-09-19T00:16:06.076Z,0.00
2018-09-19T00:17:06.063Z,0.00
2018-09-19T00:18:06.084Z,0.00
2018-09-19T00:19:06.040Z,0.00
2018-09-19T00:20:06.051Z,0.00
2018-09-19T00:21:06.018Z,0.00
2018-09-19T00:22:06.011Z,0.00
2018-09-19T00:23:05.996Z,0.00
2018-09-19T00:24:06.014Z,0.00
2018-09-19T00:25:05.976Z,0.00
2018-09-19T00:26:05.982Z,0.00
2018-09-19T00:27:05.960Z,0.00
2018-09-19T00:28:05.943Z,0.00
2018-09-19T00:29:05.929Z,0.00
2018-09-19T00:30:05.962Z,0.00
2018-09-19T00:31:05.915Z,0.00
2018-09-19T00:32:05.909Z,0.00
2018-09-19T00:33:05.889Z,0.00
2018-09-19T00:34:05.881Z,0.00
2018-09-19T00:35:05.872Z,0.00
2018-09-19T00:36:05.890Z,0.00
2018-09-19T00:37:05.864Z,0.00
2018-09-19T00:38:05.837Z,0.00
2018-09-19T00:39:05.820Z,0.00
2018-09-19T00:40:05.812Z,0.00
2018-09-19T00:41:05.795Z,0.00
2018-09-19T00:42:05.823Z,0.00
2018-09-19T00:43:05.775Z,0.00
2018-09-19T00:44:05.766Z,0.00
2018-09-19T00:45:05.753Z,0.00
2018-09-19T00:46:05.748Z,0.00
2018-09-19T00:47:05.731Z,0.00
2018-09-19T00:48:05.748Z,0.00
2018-09-19T00:49:05.706Z,0.00
2018-09-19T00:50:05.701Z,0.00
2018-09-19T00:51:05.697Z,0.00
2018-09-19T00:52:05.674Z,0.00
2018-09-19T00:53:05.692Z,0.00
2018-09-19T00:54:05.686Z,0.00
2018-09-19T00:55:05.648Z,0.00
2018-09-19T00:56:05.629Z,0.00
2018-09-19T00:57:05.619Z,0.00
2018-09-19T00:58:05.609Z,0.00
2018-09-19T00:59:05.635Z,0.00
2018-09-19T01:00:05.591Z,0.00
2018-09-19T01:01:05.634Z,0.00
2018-09-19T01:02:05.565Z,0.00
2018-09-19T01:03:05.552Z,0.00
2018-09-19T01:04:05.610Z,0.00
2018-09-19T01:05:05.566Z,0.00
2018-09-19T01:06:05.521Z,0.00
2018-09-19T01:07:05.514Z,0.00
2018-09-19T01:08:05.503Z,0.00
2018-09-19T01:09:05.485Z,0.00
2018-09-19T01:10:05.476Z,0.00
2018-09-19T01:11:05.495Z,0.00
2018-09-19T01:12:05.452Z,0.00
2018-09-19T01:13:05.442Z,0.00
2018-09-19T01:14:05.436Z,0.00
2018-09-19T01:15:05.419Z,0.00
2018-09-19T01:16:05.407Z,0.00
2018-09-19T01:17:05.428Z,0.00
2018-09-19T01:18:05.394Z,0.00
2018-09-19T01:19:05.375Z,0.00
2018-09-19T01:20:05.366Z,0.00
2018-09-19T01:21:05.366Z,0.00
2018-09-19T01:22:05.363Z,0.00
2018-09-19T01:23:05.384Z,0.00
2018-09-19T01:24:05.328Z,0.00
2018-09-19T01:25:05.315Z,0.00
2018-09-19T01:26:05.300Z,0.00
2018-09-19T01:27:05.295Z,0.00
2018-09-19T01:28:05.282Z,0.00
2018-09-19T01:29:05.301Z,0.00
2018-09-19T01:30:05.259Z,0.00
2018-09-19T01:31:05.246Z,0.00
2018-09-19T01:32:05.245Z,0.00
2018-09-19T01:33:05.222Z,0.00
2018-09-19T01:34:05.212Z,0.00
2018-09-19T01:35:05.225Z,0.00
2018-09-19T01:36:05.193Z,0.00
2018-09-19T01:37:05.182Z,0.00
2018-09-19T01:38:05.167Z,0.00
2018-09-19T01:39:05.157Z,0.00
2018-09-19T01:40:05.185Z,0.00
2018-09-19T01:41:05.165Z,0.00
2018-09-19T01:42:05.121Z,0.00
2018-09-19T01:43:05.110Z,0.00
2018-09-19T01:44:05.108Z,0.00
2018-09-19T01:45:05.095Z,0.00
2018-09-19T01:46:05.077Z,0.00
2018-09-19T01:47:05.096Z,0.00
2018-09-19T01:48:05.065Z,0.00
2018-09-19T01:49:05.045Z,0.00
2018-09-19T01:50:05.042Z,0.00
2018-09-19T01:51:05.027Z,0.00
2018-09-19T01:52:05.019Z,0.00
2018-09-19T01:53:05.094Z,0.00
2018-09-19T01:54:04.993Z,0.00
2018-09-19T01:55:04.987Z,0.00
2018-09-19T01:56:04.966Z,0.00
2018-09-19T01:57:04.957Z,0.00
2018-09-19T01:58:05.071Z,0.00
2018-09-19T01:59:04.950Z,0.00
2018-09-19T02:00:04.925Z,0.00
2018-09-19T02:01:04.916Z,0.00
2018-09-19T02:02:04.902Z,0.00
2018-09-19T02:03:04.889Z,0.00
2018-09-19T02:04:04.909Z,0.00
2018-09-19T02:05:04.868Z,0.00
2018-09-19T02:06:04.857Z,0.00
2018-09-19T02:07:04.852Z,0.00
2018-09-19T02:08:04.833Z,0.00
2018-09-19T02:09:04.825Z,0.00
2018-09-19T02:10:04.852Z,0.00
2018-09-19T02:11:04.812Z,0.00
2018-09-19T02:12:04.790Z,0.00
2018-09-19T02:13:04.778Z,0.00
2018-09-19T02:14:04.774Z,0.00
2018-09-19T02:15:04.778Z,0.00
2018-09-19T02:16:04.778Z,0.00
2018-09-19T02:17:04.742Z,0.00
2018-09-19T02:18:04.729Z,0.00
2018-09-19T02:19:04.723Z,0.00
2018-09-19T02:20:04.705Z,0.00
2018-09-19T02:21:04.718Z,0.00
2018-09-19T02:22:04.682Z,0.00
2018-09-19T02:23:04.682Z,0.00
2018-09-19T02:24:04.661Z,0.00
2018-09-19T02:25:04.649Z,0.00
2018-09-19T02:26:04.637Z,0.00
2018-09-19T02:27:04.650Z,0.00
2018-09-19T02:28:04.614Z,0.00
2018-09-19T02:29:04.603Z,0.00
2018-09-19T02:30:04.596Z,0.00
2018-09-19T02:31:04.587Z,0.00
2018-09-19T02:32:04.570Z,0.00
2018-09-19T02:33:04.593Z,0.00
2018-09-19T02:34:04.550Z,0.00
2018-09-19T02:35:04.536Z,0.00
2018-09-19T02:36:04.526Z,0.00
2018-09-19T02:37:04.530Z,0.00
2018-09-19T02:38:04.526Z,0.00
2018-09-19T02:39:04.525Z,0.00
2018-09-19T02:40:04.487Z,0.00
2018-09-19T02:41:04.479Z,0.00
2018-09-19T02:42:04.468Z,0.00
2018-09-19T02:43:04.447Z,0.00
2018-09-19T02:44:04.453Z,0.00
2018-09-19T02:45:04.460Z,0.00
2018-09-19T02:46:04.419Z,0.00
2018-09-19T02:47:04.408Z,0.00
2018-09-19T02:48:04.406Z,0.00
2018-09-19T02:49:04.394Z,0.00
2018-09-19T02:50:04.375Z,0.00
2018-09-19T02:51:04.385Z,0.00
2018-09-19T02:52:04.372Z,0.00
2018-09-19T02:53:04.341Z,0.00
2018-09-19T02:54:04.328Z,0.00
2018-09-19T02:55:04.315Z,0.00
2018-09-19T02:56:04.305Z,0.00
2018-09-19T02:57:04.322Z,0.00
2018-09-19T02:58:04.281Z,0.00
2018-09-19T02:59:04.274Z,0.00
2018-09-19T03:00:04.270Z,0.00
2018-09-19T03:01:04.252Z,0.00
2018-09-19T03:02:04.237Z,0.00
2018-09-19T03:03:04.258Z,0.00
2018-09-19T03:04:04.224Z,0.00
2018-09-19T03:05:04.217Z,0.00
2018-09-19T03:06:04.195Z,0.00
2018-09-19T03:07:04.185Z,0.00
2018-09-19T03:08:04.189Z,0.00
2018-09-19T03:09:04.198Z,0.00
2018-09-19T03:10:04.164Z,0.00
2018-09-19T03:11:04.146Z,0.00
2018-09-19T03:12:04.132Z,0.00
2018-09-19T03:13:04.123Z,0.00
2018-09-19T03:14:04.109Z,0.00
2018-09-19T03:15:04.161Z,0.00
2018-09-19T03:16:04.087Z,0.00
2018-09-19T03:17:04.119Z,0.00
2018-09-19T03:18:04.062Z,0.00
2018-09-19T03:19:04.063Z,0.00
2018-09-19T03:20:04.041Z,0.00
2018-09-19T03:21:04.066Z,0.00
2018-09-19T03:22:04.026Z,0.00
2018-09-19T03:23:04.007Z,0.00
2018-09-19T03:24:03.994Z,0.00
2018-09-19T03:25:03.989Z,0.00
2018-09-19T03:26:03.974Z,0.00
2018-09-19T03:27:04.029Z,0.00
2018-09-19T03:28:03.957Z,0.00
2018-09-19T03:29:03.959Z,0.00
2018-09-19T03:30:03.933Z,0.00
2018-09-19T03:31:03.922Z,0.00
2018-09-19T03:32:03.935Z,0.00
2018-09-19T03:33:03.926Z,0.00
2018-09-19T03:34:03.886Z,0.00
2018-09-19T03:35:03.878Z,0.00
2018-09-19T03:36:03.868Z,0.00
2018-09-19T03:37:03.853Z,0.00
2018-09-19T03:38:03.843Z,0.00
2018-09-19T03:39:03.855Z,0.00
2018-09-19T03:40:03.821Z,0.00
2018-09-19T03:41:03.823Z,0.00
2018-09-19T03:42:03.807Z,0.00
2018-09-19T03:43:03.788Z,0.00
2018-09-19T03:44:03.776Z,0.00
2018-09-19T03:45:03.869Z,0.00
2018-09-19T03:46:03.800Z,0.00
2018-09-19T03:47:03.740Z,0.00
2018-09-19T03:48:03.731Z,0.00
2018-09-19T03:49:03.718Z,0.00
2018-09-19T03:50:03.720Z,0.00
2018-09-19T03:51:03.737Z,0.00
2018-09-19T03:52:03.717Z,0.00
2018-09-19T03:53:03.673Z,0.00
2018-09-19T03:54:03.678Z,0.00
2018-09-19T03:55:03.657Z,0.00
2018-09-19T03:56:03.678Z,0.00
2018-09-19T03:57:03.643Z,0.00
2018-09-19T03:58:03.719Z,0.00
2018-09-19T03:59:03.610Z,0.00
2018-09-19T04:00:03.609Z,0.00
2018-09-19T04:01:03.599Z,0.00
2018-09-19T04:02:03.604Z,0.00
2018-09-19T04:03:03.585Z,0.00
2018-09-19T04:04:03.557Z,0.00
2018-09-19T04:05:03.577Z,0.00
2018-09-19T04:06:03.536Z,0.00
2018-09-19T04:07:03.545Z,0.00
2018-09-19T04:08:03.537Z,0.00
2018-09-19T04:09:03.508Z,0.00
2018-09-19T04:10:03.488Z,0.00
2018-09-19T04:11:03.482Z,0.00
2018-09-19T04:12:03.475Z,0.00
2018-09-19T04:13:03.535Z,0.00
2018-09-19T04:14:03.489Z,0.00
2018-09-19T04:15:03.441Z,0.00
2018-09-19T04:16:03.424Z,0.00
2018-09-19T04:17:03.450Z,0.00
2018-09-19T04:18:03.404Z,0.00
2018-09-19T04:19:03.389Z,0.00
2018-09-19T04:20:03.428Z,0.00
2018-09-19T04:21:03.370Z,0.00
2018-09-19T04:22:03.358Z,0.00
2018-09-19T04:23:03.349Z,0.00
2018-09-19T04:24:03.342Z,0.00
2018-09-19T04:25:03.332Z,0.00
2018-09-19T04:26:03.342Z,0.00
2018-09-19T04:27:03.313Z,0.00
2018-09-19T04:28:03.324Z,0.00
2018-09-19T04:29:03.275Z,0.00
2018-09-19T04:30:03.277Z,0.00
2018-09-19T04:31:03.255Z,0.00
2018-09-19T04:32:03.285Z,0.00
2018-09-19T04:33:03.236Z,0.00
2018-09-19T04:34:03.225Z,0.00
2018-09-19T04:35:03.212Z,0.00
2018-09-19T04:36:03.203Z,0.00
2018-09-19T04:37:03.190Z,0.00
2018-09-19T04:38:03.211Z,0.00
2018-09-19T04:39:03.165Z,0.00
2018-09-19T04:40:03.159Z,0.00
2018-09-19T04:41:03.143Z,0.00
2018-09-19T04:42:03.154Z,0.00
2018-09-19T04:43:03.126Z,0.00
2018-09-19T04:44:03.153Z,0.00
2018-09-19T04:45:03.182Z,0.00
2018-09-19T04:46:03.094Z,0.00
2018-09-19T04:47:03.083Z,0.00
2018-09-19T04:48:03.079Z,0.00
2018-09-19T04:49:03.056Z,0.00
2018-09-19T04:50:03.094Z,0.00
2018-09-19T04:51:03.034Z,0.00
2018-09-19T04:52:03.031Z,0.00
2018-09-19T04:53:03.033Z,0.00
2018-09-19T04:54:03.003Z,0.00
2018-09-19T04:55:03.006Z,0.00
2018-09-19T04:56:03.100Z,0.00
2018-09-19T04:57:02.973Z,0.00
2018-09-19T04:58:02.961Z,0.00
2018-09-19T04:59:02.944Z,0.00
2018-09-19T05:00:02.935Z,0.00
2018-09-19T05:01:02.924Z,0.00
2018-09-19T05:02:02.945Z,0.00
2018-09-19T05:03:02.905Z,0.00
2018-09-19T05:04:02.889Z,0.00
2018-09-19T05:05:02.897Z,0.00
2018-09-19T05:06:02.872Z,0.00
2018-09-19T05:07:02.858Z,0.00
2018-09-19T05:08:02.875Z,0.00
2018-09-19T05:09:02.837Z,0.00
2018-09-19T05:10:02.835Z,0.00
2018-09-19T05:11:02.818Z,0.00
2018-09-19T05:12:02.839Z,4.00
2018-09-19T05:13:02.793Z,4.00
2018-09-19T05:14:02.814Z,0.00
2018-09-19T05:15:02.816Z,0.00
2018-09-19T05:16:02.757Z,0.00
2018-09-19T05:17:02.766Z,4.00
2018-09-19T05:18:02.739Z,4.00
2018-09-19T05:19:02.735Z,0.00
2018-09-19T05:20:02.720Z,0.00
2018-09-19T05:21:02.741Z,0.00
2018-09-19T05:22:02.691Z,0.00
2018-09-19T05:23:02.688Z,0.00
2018-09-19T05:24:02.695Z,0.00
2018-09-19T05:25:02.668Z,0.00
2018-09-19T05:26:02.648Z,4.00
2018-09-19T05:27:02.677Z,4.00
2018-09-19T05:28:02.633Z,4.00
2018-09-19T05:29:02.615Z,4.00
2018-09-19T05:30:02.610Z,4.00
2018-09-19T05:31:02.592Z,4.00
2018-09-19T05:32:02.594Z,4.00
2018-09-19T05:33:02.598Z,4.00
2018-09-19T05:34:02.563Z,4.00
2018-09-19T05:35:02.549Z,4.00
2018-09-19T05:36:02.537Z,4.00
2018-09-19T05:37:02.529Z,4.00
2018-09-19T05:38:02.535Z,4.00
2018-09-19T05:39:02.538Z,4.00
2018-09-19T05:40:02.513Z,8.00
2018-09-19T05:41:02.492Z,8.00
2018-09-19T05:42:02.468Z,8.00
2018-09-19T05:43:02.457Z,8.00
2018-09-19T05:44:02.456Z,8.00
2018-09-19T05:45:02.476Z,8.00
2018-09-19T05:46:02.425Z,4.00
2018-09-19T05:47:02.434Z,4.00
2018-09-19T05:48:02.403Z,4.00
2018-09-19T05:49:02.391Z,4.00
2018-09-19T05:50:02.385Z,4.00
2018-09-19T05:51:02.401Z,4.00
2018-09-19T05:52:02.360Z,8.00
2018-09-19T05:53:02.357Z,8.00
2018-09-19T05:54:02.344Z,8.00
2018-09-19T05:55:02.340Z,8.00
2018-09-19T05:56:02.324Z,8.00
2018-09-19T05:57:02.341Z,8.00
2018-09-19T05:58:02.295Z,8.00
2018-09-19T05:59:02.282Z,8.00
2018-09-19T06:00:02.272Z,8.00
2018-09-19T06:01:02.267Z,8.00
2018-09-19T06:02:02.252Z,8.00
2018-09-19T06:03:02.279Z,8.00
2018-09-19T06:04:02.230Z,8.00
2018-09-19T06:05:02.343Z,8.00
2018-09-19T06:06:02.207Z,8.00
2018-09-19T06:07:02.198Z,8.00
2018-09-19T06:08:02.229Z,8.00
2018-09-19T06:09:02.212Z,8.00
2018-09-19T06:10:02.203Z,12.00
2018-09-19T06:11:02.148Z,12.00
2018-09-19T06:12:02.147Z,12.00
2018-09-19T06:13:02.260Z,12.00
2018-09-19T06:14:02.145Z,8.00
2018-09-19T06:15:02.137Z,8.00
2018-09-19T06:16:03.344Z,12.00
2018-09-19T06:17:02.112Z,12.00
2018-09-19T06:18:02.079Z,12.00
2018-09-19T06:19:02.116Z,12.00
2018-09-19T06:20:02.053Z,12.00
2018-09-19T06:21:02.048Z,12.00
2018-09-19T06:22:02.052Z,12.00
2018-09-19T06:23:02.017Z,16.00
2018-09-19T06:24:02.014Z,12.00
2018-09-19T06:25:02.031Z,12.00
2018-09-19T06:26:01.996Z,12.00
2018-09-19T06:27:02.023Z,12.00
2018-09-19T06:28:01.971Z,16.00
2018-09-19T06:29:01.964Z,16.00
2018-09-19T06:30:01.953Z,16.00
2018-09-19T06:31:01.953Z,16.00
2018-09-19T06:32:01.930Z,12.00
2018-09-19T06:33:02.043Z,16.00
2018-09-19T06:34:01.937Z,16.00
2018-09-19T06:35:01.943Z,16.00
2018-09-19T06:36:01.891Z,16.00
2018-09-19T06:37:01.952Z,20.00
2018-09-19T06:38:01.887Z,16.00
2018-09-19T06:39:01.846Z,16.00
2018-09-19T06:40:01.892Z,16.00
2018-09-19T06:41:02.006Z,16.00
2018-09-19T06:42:01.818Z,16.00
2018-09-19T06:43:01.836Z,20.00
2018-09-19T06:44:01.793Z,20.00
2018-09-19T06:45:01.800Z,16.00
2018-09-19T06:46:01.773Z,20.00
2018-09-19T06:47:01.800Z,20.00
2018-09-19T06:48:01.820Z,20.00
2018-09-19T06:49:01.763Z,20.00
2018-09-19T06:50:01.723Z,20.00
2018-09-19T06:51:01.732Z,20.00
2018-09-19T06:52:01.787Z,20.00
2018-09-19T06:53:01.691Z,20.00
2018-09-19T06:54:01.722Z,24.00
2018-09-19T06:55:01.675Z,24.00
2018-09-19T06:56:01.651Z,20.00
2018-09-19T06:57:01.652Z,24.00
2018-09-19T06:58:01.648Z,20.00
2018-09-19T06:59:01.638Z,20.00
2018-09-19T07:00:01.657Z,20.00
2018-09-19T07:01:01.605Z,24.00
2018-09-19T07:02:01.712Z,24.00
2018-09-19T07:03:02.025Z,24.00
2018-09-19T07:04:01.666Z,28.00
2018-09-19T07:05:01.614Z,28.00
2018-09-19T07:06:02.606Z,28.00
2018-09-19T07:07:01.629Z,28.00
2018-09-19T07:08:01.553Z,28.00
2018-09-19T07:09:01.519Z,24.00
2018-09-19T07:10:01.562Z,28.00
2018-09-19T07:11:01.517Z,28.00
2018-09-19T07:12:01.795Z,28.00
2018-09-19T07:13:01.666Z,28.00
2018-09-19T07:14:01.457Z,28.00
2018-09-19T07:15:01.612Z,32.00
2018-09-19T07:16:01.546Z,32.00
2018-09-19T07:17:01.542Z,28.00
2018-09-19T07:18:01.473Z,28.00
2018-09-19T07:19:01.575Z,32.00
2018-09-19T07:20:01.549Z,28.00
2018-09-19T07:21:01.417Z,32.00
2018-09-19T07:22:01.460Z,32.00
2018-09-19T07:23:01.356Z,32.00
2018-09-19T07:24:01.453Z,32.00
2018-09-19T07:25:01.467Z,32.00
2018-09-19T07:26:01.337Z,32.00
2018-09-19T07:27:01.385Z,36.00
2018-09-19T07:28:01.314Z,36.00
2018-09-19T07:29:01.367Z,36.00
2018-09-19T07:30:01.338Z,36.00
2018-09-19T07:31:01.346Z,32.00
2018-09-19T07:32:01.394Z,32.00
2018-09-19T07:33:01.260Z,32.00
2018-09-19T07:34:01.297Z,36.00
2018-09-19T07:35:01.385Z,36.00
2018-09-19T07:36:01.252Z,36.00
2018-09-19T07:37:01.201Z,36.00
2018-09-19T07:38:01.212Z,36.00
2018-09-19T07:39:01.207Z,36.00
2018-09-19T07:40:01.182Z,36.00
2018-09-19T07:41:01.157Z,36.00
2018-09-19T07:42:01.198Z,40.00
2018-09-19T07:43:01.143Z,40.00
2018-09-19T07:44:01.139Z,40.00
2018-09-19T07:45:01.181Z,40.00
2018-09-19T07:46:01.193Z,40.00
2018-09-19T07:47:01.091Z,36.00
2018-09-19T07:48:01.154Z,36.00
2018-09-19T07:49:01.090Z,36.00
2018-09-19T07:50:01.102Z,36.00
2018-09-19T07:51:01.079Z,40.00
2018-09-19T07:52:01.087Z,40.00
2018-09-19T07:53:01.032Z,44.00
2018-09-19T07:54:01.109Z,40.00
2018-09-19T07:55:01.004Z,40.00
2018-09-19T07:56:01.005Z,44.00
2018-09-19T07:57:01.068Z,40.00
2018-09-19T07:58:01.019Z,44.00
2018-09-19T07:59:01.108Z,44.00
2018-09-19T08:00:00.990Z,40.00
2018-09-19T08:01:01.005Z,48.00
2018-09-19T08:02:01.245Z,52.00
2018-09-19T08:03:01.701Z,48.00
2018-09-19T08:04:02.017Z,48.00
2018-09-19T08:05:01.061Z,44.00
2018-09-19T08:06:00.975Z,32.00
2018-09-19T08:07:00.997Z,32.00
2018-09-19T08:08:00.921Z,36.00
2018-09-19T08:09:01.016Z,48.00
2018-09-19T08:10:00.834Z,52.00
2018-09-19T08:11:02.704Z,52.00
2018-09-19T08:12:01.149Z,56.00
2018-09-19T08:13:00.886Z,52.00
2018-09-19T08:14:00.864Z,52.00
2018-09-19T08:15:01.753Z,56.00
2018-09-19T08:16:00.849Z,56.00
2018-09-19T08:17:00.941Z,56.00
2018-09-19T08:18:00.844Z,56.00
2018-09-19T08:19:00.751Z,56.00
2018-09-19T08:20:00.788Z,56.00
2018-09-19T08:21:00.719Z,52.00
2018-09-19T08:22:00.795Z,56.00
2018-09-19T08:23:00.757Z,52.00
2018-09-19T08:24:00.751Z,52.00
2018-09-19T08:25:00.795Z,52.00
2018-09-19T08:26:00.660Z,52.00
2018-09-19T08:27:00.652Z,52.00
2018-09-19T08:28:00.662Z,52.00
2018-09-19T08:29:00.661Z,48.00
2018-09-19T08:30:00.617Z,52.00
2018-09-19T08:31:00.736Z,52.00
2018-09-19T08:32:00.729Z,48.00
2018-09-19T08:33:00.642Z,40.00
2018-09-19T08:34:00.652Z,36.00
2018-09-19T08:35:00.597Z,24.00
2018-09-19T08:36:00.640Z,28.00
2018-09-19T08:37:00.542Z,24.00
2018-09-19T08:38:00.526Z,20.00
2018-09-19T08:39:00.640Z,28.00
2018-09-19T08:40:00.531Z,28.00
2018-09-19T08:41:00.535Z,32.00
2018-09-19T08:42:00.902Z,32.00
2018-09-19T08:43:00.633Z,32.00
2018-09-19T08:44:00.464Z,28.00
2018-09-19T08:45:01.222Z,32.00
2018-09-19T08:46:00.463Z,44.00
2018-09-19T08:47:01.012Z,52.00
2018-09-19T08:48:00.508Z,40.00
2018-09-19T08:49:00.429Z,48.00
2018-09-19T08:50:00.430Z,56.00
2018-09-19T08:51:00.434Z,56.00
2018-09-19T08:52:00.770Z,56.00
2018-09-19T08:53:00.413Z,56.00
2018-09-19T08:54:00.476Z,52.00
2018-09-19T08:55:00.402Z,52.00
2018-09-19T08:56:00.428Z,52.00
2018-09-19T08:57:00.434Z,56.00
2018-09-19T08:58:00.322Z,56.00
2018-09-19T08:59:00.304Z,56.00
2018-09-19T09:00:00.616Z,52.00
2018-09-19T09:01:00.333Z,56.00
2018-09-19T09:02:00.300Z,56.00
2018-09-19T09:03:00.255Z,52.00
2018-09-19T09:04:00.247Z,52.00
2018-09-19T09:05:00.234Z,52.00
2018-09-19T09:06:00.243Z,52.00
2018-09-19T09:07:00.209Z,52.00
2018-09-19T09:08:00.218Z,52.00
2018-09-19T09:09:00.235Z,52.00
2018-09-19T09:10:00.183Z,52.00
2018-09-19T09:11:00.172Z,52.00
2018-09-19T09:12:00.250Z,52.00
2018-09-19T09:13:00.153Z,52.00
2018-09-19T09:14:00.178Z,52.00
2018-09-19T09:15:00.116Z,52.00
2018-09-19T09:16:00.104Z,52.00
2018-09-19T09:17:00.107Z,52.00
2018-09-19T09:18:00.157Z,52.00
2018-09-19T09:19:00.087Z,52.00
2018-09-19T09:20:00.129Z,52.00
2018-09-19T09:21:00.048Z,52.00
2018-09-19T09:22:00.038Z,52.00
2018-09-19T09:23:00.032Z,52.00
2018-09-19T09:24:00.058Z,52.00
2018-09-19T09:25:00.020Z,52.00
2018-09-19T09:26:00.091Z,52.00
2018-09-19T09:27:00.109Z,52.00
2018-09-19T09:27:59.968Z,52.00
2018-09-19T09:28:59.976Z,52.00
2018-09-19T09:30:00.024Z,52.00
2018-09-19T09:31:00.104Z,52.00
2018-09-19T09:31:59.987Z,52.00
2018-09-19T09:32:59.922Z,52.00
2018-09-19T09:34:00.035Z,52.00
2018-09-19T09:34:59.898Z,48.00
2018-09-19T09:35:59.920Z,52.00
2018-09-19T09:36:59.881Z,52.00
2018-09-19T09:37:59.877Z,52.00
2018-09-19T09:38:59.864Z,56.00
2018-09-19T09:39:59.861Z,52.00
2018-09-19T09:40:59.827Z,52.00
2018-09-19T09:41:59.953Z,52.00
2018-09-19T09:42:59.810Z,52.00
2018-09-19T09:43:59.974Z,56.00
2018-09-19T09:44:59.786Z,52.00
2018-09-19T09:45:59.831Z,52.00
2018-09-19T09:46:59.768Z,56.00
2018-09-19T09:47:59.793Z,52.00
2018-09-19T09:48:59.745Z,56.00
2018-09-19T09:49:59.742Z,52.00
2018-09-19T09:50:59.774Z,56.00
2018-09-19T09:51:59.701Z,60.00
2018-09-19T09:52:59.757Z,56.00
2018-09-19T09:53:59.691Z,60.00
2018-09-19T09:54:59.682Z,60.00
2018-09-19T09:55:59.665Z,64.00
2018-09-19T09:56:59.669Z,64.00
2018-09-19T09:57:59.645Z,68.00
2018-09-19T09:58:59.658Z,72.00
2018-09-19T09:59:59.622Z,44.00
2018-09-19T10:00:59.641Z,68.00
2018-09-19T10:01:59.649Z,44.00
2018-09-19T10:02:59.610Z,40.00
2018-09-19T10:03:59.639Z,48.00
2018-09-19T10:04:59.583Z,44.00
2018-09-19T10:05:59.553Z,44.00
2018-09-19T10:06:59.582Z,40.00
2018-09-19T10:07:59.528Z,40.00
2018-09-19T10:08:59.520Z,68.00
2018-09-19T10:09:59.507Z,44.00
2018-09-19T10:10:59.505Z,40.00
2018-09-19T10:11:59.484Z,40.00
2018-09-19T10:12:59.505Z,68.00
2018-09-19T10:13:59.460Z,68.00
2018-09-19T10:14:59.452Z,64.00
2018-09-19T10:15:59.437Z,32.00
2018-09-19T10:16:59.445Z,28.00
2018-09-19T10:17:59.429Z,32.00
2018-09-19T10:18:59.465Z,28.00
2018-09-19T10:19:59.403Z,44.00
2018-09-19T10:20:59.408Z,32.00
2018-09-19T10:21:59.373Z,32.00
2018-09-19T10:22:59.367Z,32.00
2018-09-19T10:23:59.349Z,36.00
2018-09-19T10:24:59.371Z,52.00
2018-09-19T10:25:59.333Z,64.00
2018-09-19T10:26:59.323Z,36.00
2018-09-19T10:27:59.319Z,64.00
2018-09-19T10:28:59.300Z,36.00
2018-09-19T10:29:59.292Z,36.00
2018-09-19T10:30:59.300Z,40.00
2018-09-19T10:31:59.263Z,36.00
2018-09-19T10:32:59.258Z,68.00
2018-09-19T10:33:59.288Z,60.00
2018-09-19T10:34:59.268Z,36.00
2018-09-19T10:35:59.219Z,68.00
2018-09-19T10:36:59.254Z,40.00
2018-09-19T10:37:59.244Z,36.00
2018-09-19T10:38:59.189Z,36.00
2018-09-19T10:39:59.265Z,36.00
2018-09-19T10:40:59.165Z,40.00
2018-09-19T10:41:59.152Z,64.00
2018-09-19T10:42:59.171Z,64.00
2018-09-19T10:43:59.200Z,64.00
2018-09-19T10:44:59.118Z,60.00
2018-09-19T10:45:59.119Z,28.00
2018-09-19T10:46:59.129Z,52.00
2018-09-19T10:47:59.085Z,28.00
2018-09-19T10:48:59.128Z,56.00
2018-09-19T10:49:59.061Z,52.00
2018-09-19T10:50:59.199Z,40.00
2018-09-19T10:51:59.044Z,28.00
2018-09-19T10:52:59.131Z,44.00
2018-09-19T10:53:59.109Z,48.00
2018-09-19T10:54:59.201Z,52.00
2018-09-19T10:55:59.021Z,28.00
2018-09-19T10:56:59.032Z,32.00
2018-09-19T10:57:59.079Z,52.00
2018-09-19T10:58:58.962Z,28.00
2018-09-19T10:59:59.000Z,36.00
2018-09-19T11:00:59.014Z,32.00
2018-09-19T11:01:58.933Z,52.00
2018-09-19T11:02:58.920Z,24.00
2018-09-19T11:03:58.948Z,52.00
2018-09-19T11:04:58.905Z,36.00
2018-09-19T11:05:58.984Z,24.00
2018-09-19T11:06:58.922Z,24.00
2018-09-19T11:07:58.895Z,28.00
2018-09-19T11:08:58.859Z,28.00
2018-09-19T11:09:58.850Z,52.00
2018-09-19T11:10:58.905Z,28.00
2018-09-19T11:11:58.831Z,52.00
2018-09-19T11:12:58.839Z,52.00
2018-09-19T11:13:58.796Z,52.00
2018-09-19T11:14:58.783Z,52.00
2018-09-19T11:15:58.804Z,52.00
2018-09-19T11:16:58.768Z,48.00
2018-09-19T11:17:58.753Z,48.00
2018-09-19T11:18:58.786Z,52.00
2018-09-19T11:19:58.738Z,52.00
2018-09-19T11:20:58.745Z,36.00
2018-09-19T11:21:58.710Z,52.00
2018-09-19T11:22:58.704Z,52.00
2018-09-19T11:23:58.702Z,52.00
2018-09-19T11:24:58.715Z,52.00
2018-09-19T11:25:58.667Z,52.00
2018-09-19T11:26:58.674Z,52.00
2018-09-19T11:27:58.657Z,52.00
2018-09-19T11:28:58.665Z,52.00
2018-09-19T11:29:58.704Z,56.00
2018-09-19T11:30:58.634Z,52.00
2018-09-19T11:31:58.644Z,52.00
2018-09-19T11:32:58.600Z,56.00
2018-09-19T11:33:58.584Z,28.00
2018-09-19T11:34:58.684Z,56.00
2018-09-19T11:35:58.599Z,56.00
2018-09-19T11:36:58.575Z,56.00
2018-09-19T11:37:58.552Z,56.00
2018-09-19T11:38:58.523Z,36.00
2018-09-19T11:39:58.506Z,56.00
2018-09-19T11:40:58.520Z,60.00
2018-09-19T11:41:58.518Z,60.00
2018-09-19T11:42:58.507Z,64.00
2018-09-19T11:43:58.476Z,64.00
2018-09-19T11:44:58.452Z,64.00
2018-09-19T11:45:58.450Z,60.00
2018-09-19T11:46:58.440Z,60.00
2018-09-19T11:47:58.437Z,60.00
2018-09-19T11:48:58.454Z,64.00
2018-09-19T11:49:58.398Z,60.00
2018-09-19T11:50:58.388Z,60.00
2018-09-19T11:51:58.426Z,64.00
2018-09-19T11:52:58.382Z,64.00
2018-09-19T11:53:58.401Z,64.00
2018-09-19T11:54:58.377Z,40.00
2018-09-19T11:55:58.337Z,40.00
2018-09-19T11:56:58.322Z,60.00
2018-09-19T11:57:58.315Z,60.00
2018-09-19T11:58:58.325Z,32.00
2018-09-19T11:59:58.297Z,36.00
2018-09-19T12:00:58.277Z,60.00
2018-09-19T12:01:58.285Z,36.00
2018-09-19T12:02:58.261Z,60.00
2018-09-19T12:03:58.280Z,48.00
2018-09-19T12:04:58.231Z,60.00
2018-09-19T12:05:58.225Z,56.00
2018-09-19T12:06:58.220Z,60.00
2018-09-19T12:07:58.198Z,60.00
2018-09-19T12:08:58.230Z,60.00
2018-09-19T12:09:58.184Z,56.00
2018-09-19T12:10:58.184Z,56.00
2018-09-19T12:11:58.177Z,52.00
2018-09-19T12:12:58.149Z,52.00
2018-09-19T12:13:58.158Z,52.00
2018-09-19T12:14:58.174Z,52.00
2018-09-19T12:15:58.115Z,52.00
2018-09-19T12:16:58.106Z,52.00
2018-09-19T12:17:58.103Z,52.00
2018-09-19T12:18:58.087Z,52.00
2018-09-19T12:19:58.075Z,52.00
2018-09-19T12:20:58.103Z,52.00
2018-09-19T12:21:58.052Z,52.00
2018-09-19T12:22:58.036Z,52.00
2018-09-19T12:23:58.023Z,56.00
2018-09-19T12:24:58.168Z,60.00
2018-09-19T12:25:58.623Z,60.00
2018-09-19T12:26:58.037Z,64.00
2018-09-19T12:27:57.978Z,56.00
2018-09-19T12:28:58.829Z,56.00
2018-09-19T12:29:58.063Z,56.00
2018-09-19T12:30:57.970Z,56.00
2018-09-19T12:31:58.087Z,52.00
2018-09-19T12:32:58.849Z,52.00
2018-09-19T12:33:58.641Z,52.00
2018-09-19T12:34:58.076Z,48.00
2018-09-19T12:36:02.152Z,32.00
2018-09-19T12:36:58.423Z,32.00
2018-09-19T12:37:57.934Z,48.00
2018-09-19T12:38:58.592Z,32.00
2018-09-19T12:39:57.882Z,32.00
2018-09-19T12:40:58.027Z,36.00
2018-09-19T12:41:57.903Z,52.00
2018-09-19T12:42:57.835Z,52.00
2018-09-19T12:43:58.063Z,36.00
2018-09-19T12:44:57.886Z,36.00
2018-09-19T12:45:57.896Z,48.00
2018-09-19T12:46:58.592Z,36.00
2018-09-19T12:47:57.833Z,48.00
2018-09-19T12:48:57.837Z,48.00
2018-09-19T12:49:57.834Z,48.00
2018-09-19T12:50:57.779Z,48.00
2018-09-19T12:51:57.813Z,36.00
2018-09-19T12:52:57.833Z,36.00
2018-09-19T12:53:57.764Z,36.00
2018-09-19T12:54:57.737Z,36.00
2018-09-19T12:55:57.784Z,48.00
2018-09-19T12:56:57.688Z,52.00
2018-09-19T12:57:57.661Z,48.00
2018-09-19T12:58:57.763Z,48.00
2018-09-19T12:59:59.025Z,48.00
2018-09-19T13:00:57.736Z,44.00
2018-09-19T13:01:57.706Z,32.00
2018-09-19T13:02:57.648Z,36.00
2018-09-19T13:03:57.632Z,44.00